Terminal Aerodrome Forecast
Issued by NWS Burlington, VT

Home | Current Version | Previous Version | Text Only | Print | Product List | Glossary On
Versions: 1 2 3 4 5 6 7 8 9 10 11 12 13 14 15 16
000
FTUS41 KBTV 201700
TAFBTV
TAF
KBTV 201725Z 2018/2118 18008KT P6SM FEW150 SCT200
     FM210000 17005KT P6SM BKN150 BKN200
     FM210600 17005KT P6SM BKN100 BKN150
     FM211400 18012KT P6SM BKN100=

USA.gov is the U.S. government's official web portal to all federal, state and local government web resources and services.